Terminal Aerodrome Forecast
Issued by NWS Lake Charles, LA

Home | Current Version | Previous Version | Text Only | Print | Product List | Glossary On
Versions: 1 2 3 4 5 6 7 8 9 10 11 12 13 14 15 16 17 18 19 20 21 22 23 24
392
FTUS44 KLCH 281402 AAA
TAFBPT
TAF AMD
KBPT 281402Z 2814/2912 15007KT 6SM BR SCT010 BKN025
      TEMPO 2814/2816 BKN015
     FM281600 15012G22KT P6SM BKN050
     FM290000 14012G20KT P6SM OVC015=

USA.gov is the U.S. government's official web portal to all federal, state and local government web resources and services.